Time;durP1;ratioP1;P1;durP2;ratioP2;P2;SDS_P1;SDS_P2;PMS_P1;PMS_P2;Temp;Humidity;BMP_temperature;BMP_pressure;BME280_temperature;BME280_humidity;BME280_pressure;Samples;Min_cycle;Max_cycle;Signal;HPM_P1;HPM_P2
2021/01/22 00:00:59;;;;;;;6.82;2.78;;;;;;;7.21;75.40;98643.22;5094009;28;20436;-71
2021/01/22 00:03:30;;;;;;;5.13;2.53;;;;;;;7.29;75.11;98646.59;5093971;28;20047;-69
2021/01/22 00:05:58;;;;;;;5.43;2.63;;;;;;;7.25;74.77;98639.81;5094296;28;20063;-69
2021/01/22 00:08:26;;;;;;;8.55;2.83;;;;;;;7.13;75.17;98637.34;5093899;28;20071;-69
2021/01/22 00:10:54;;;;;;;9.25;3.20;;;;;;;6.85;75.46;98633.22;5093912;28;20056;-69
2021/01/22 00:13:22;;;;;;;6.03;2.08;;;;;;;6.89;76.22;98643.34;5093867;28;20126;-69
2021/01/22 00:15:50;;;;;;;4.60;2.00;;;;;;;7.17;75.82;98632.28;5092562;28;20444;-69
2021/01/22 00:18:17;;;;;;;4.82;2.25;;;;;;;6.91;75.83;98623.06;5094116;28;20047;-68
2021/01/22 00:20:46;;;;;;;6.25;2.50;;;;;;;6.89;75.76;98637.41;5093722;28;20448;-69
2021/01/22 00:23:14;;;;;;;8.13;3.92;;;;;;;7.22;76.05;98630.53;5093818;28;20048;-70
2021/01/22 00:25:42;;;;;;;7.63;3.88;;;;;;;7.40;75.53;98622.00;5093650;28;20391;-70
2021/01/22 00:28:16;;;;;;;5.53;2.60;;;;;;;7.49;74.80;98629.56;5093984;28;20047;-67
2021/01/22 00:30:45;;;;;;;6.90;2.70;;;;;;;7.53;74.06;98605.84;5093637;28;20068;-70
2021/01/22 00:33:12;;;;;;;12.82;2.20;;;;;;;7.74;73.48;98620.09;5093931;28;20553;-69
2021/01/22 00:35:40;;;;;;;4.22;1.45;;;;;;;7.76;73.91;98608.22;5093561;28;20040;-69
2021/01/22 00:38:10;;;;;;;4.47;1.98;;;;;;;7.76;72.86;98606.53;5093616;28;20048;-68
2021/01/22 00:40:38;;;;;;;5.32;1.98;;;;;;;7.69;73.55;98602.34;5093560;28;20157;-69
2021/01/22 00:43:06;;;;;;;6.82;2.00;;;;;;;7.72;73.39;98606.56;5094129;28;20146;-70
2021/01/22 00:45:34;;;;;;;4.68;2.00;;;;;;;7.53;73.80;98593.16;5093842;28;20048;-69
2021/01/22 00:48:02;;;;;;;4.38;1.83;;;;;;;7.78;73.57;98587.06;5093685;28;20514;-69
2021/01/22 00:50:30;;;;;;;5.47;2.13;;;;;;;8.03;73.02;98562.31;5092281;28;20089;-69
2021/01/22 00:52:59;;;;;;;5.43;2.05;;;;;;;8.36;71.73;98601.84;5092213;28;20052;-67
2021/01/22 00:55:28;;;;;;;2.25;1.30;;;;;;;8.52;71.41;98614.38;5093962;28;20074;-70
2021/01/22 00:58:21;;;;;;;6.97;2.10;;;;;;;8.47;70.69;98570.38;5087648;28;20508;-71
2021/01/22 01:01:00;;;;;;;5.47;1.92;;;;;;;8.11;71.01;98575.75;5092272;28;20044;-70
2021/01/22 01:03:33;;;;;;;2.58;1.35;;;;;;;7.83;71.66;98572.63;5093366;28;20048;-70
2021/01/22 01:06:01;;;;;;;4.15;1.92;;;;;;;7.59;73.26;98559.25;5092397;28;20432;-69
2021/01/22 01:08:30;;;;;;;3.80;1.83;;;;;;;7.87;73.38;98551.41;5092087;28;20052;-70
2021/01/22 01:11:06;;;;;;;4.70;1.85;;;;;;;7.83;73.01;98554.84;5093682;28;20052;-69
2021/01/22 01:13:48;;;;;;;2.70;1.48;;;;;;;7.70;72.86;98548.16;5094938;28;20056;-68
2021/01/22 01:16:21;;;;;;;5.93;2.33;;;;;;;7.97;73.55;98544.56;5097209;28;20048;-69
2021/01/22 01:18:49;;;;;;;5.32;2.08;;;;;;;8.06;72.57;98537.69;5097103;28;20064;-68
2021/01/22 01:21:17;;;;;;;7.22;1.98;;;;;;;8.09;71.99;98537.69;5097113;28;20434;-68
2021/01/22 01:23:45;;;;;;;7.13;2.42;;;;;;;7.88;72.40;98548.03;5095793;28;20048;-68
2021/01/22 01:26:14;;;;;;;6.18;3.08;;;;;;;7.38;73.30;98527.25;5096977;28;20047;-69
2021/01/22 01:28:41;;;;;;;5.85;3.28;;;;;;;7.04;74.23;98506.31;5096824;28;20040;-68
2021/01/22 01:31:09;;;;;;;5.38;2.33;;;;;;;7.24;75.54;98508.75;5096878;28;20052;-69
2021/01/22 01:33:38;;;;;;;6.25;2.55;;;;;;;7.41;75.00;98495.06;5096733;28;20506;-69
2021/01/22 01:36:06;;;;;;;4.82;2.20;;;;;;;7.68;75.19;98494.00;5096800;28;20055;-69
2021/01/22 01:38:34;;;;;;;6.53;2.33;;;;;;;7.71;74.10;98494.00;5096703;28;20036;-68
2021/01/22 01:41:02;;;;;;;4.97;2.20;;;;;;;7.75;73.52;98484.66;5096706;28;20060;-69
2021/01/22 01:43:31;;;;;;;5.65;2.10;;;;;;;7.77;74.04;98477.88;5096973;28;20490;-68
2021/01/22 01:45:58;;;;;;;4.60;2.10;;;;;;;7.88;73.21;98482.00;5096493;28;20460;-68
2021/01/22 01:48:30;;;;;;;5.13;2.00;;;;;;;7.80;73.50;98478.66;5096525;28;20055;-68
2021/01/22 01:50:58;;;;;;;3.55;1.88;;;;;;;7.89;73.12;98468.41;5096458;28;20106;-68
2021/01/22 01:53:27;;;;;;;3.60;1.25;;;;;;;7.79;73.60;98471.06;5096504;28;20402;-69
2021/01/22 01:55:56;;;;;;;5.30;2.33;;;;;;;7.61;73.22;98456.84;5096339;28;20056;-68
2021/01/22 01:58:25;;;;;;;5.95;2.15;;;;;;;7.41;74.41;98451.09;5096351;28;20043;-68
2021/01/22 02:00:54;;;;;;;6.80;2.00;;;;;;;7.41;74.35;98458.72;5096615;28;20079;-68
2021/01/22 02:03:22;;;;;;;4.95;1.80;;;;;;;7.88;74.45;98453.22;5096267;28;20383;-69
2021/01/22 02:05:50;;;;;;;3.70;1.58;;;;;;;7.92;73.91;98453.16;5096150;28;20498;-68
2021/01/22 02:08:20;;;;;;;;;;;;;;;7.81;73.39;98449.91;5096565;28;20044;-68
2021/01/22 02:10:48;;;;;;;5.10;2.15;;;;;;;7.64;73.94;98451.75;5096077;28;19920;-68
2021/01/22 02:13:17;;;;;;;5.57;2.00;;;;;;;7.57;74.37;98434.88;5096077;28;20064;-69
2021/01/22 02:15:46;;;;;;;3.33;1.90;;;;;;;7.55;74.66;98445.91;5096309;28;20047;-70
2021/01/22 02:18:15;;;;;;;4.23;1.77;;;;;;;7.60;74.56;98439.94;5096279;28;20166;-70
2021/01/22 02:20:50;;;;;;;;;;;;;;;7.67;74.08;98431.41;5096348;28;20044;-70
2021/01/22 02:23:21;;;;;;;5.53;2.25;;;;;;;7.67;74.33;98445.78;5094901;28;19920;-69
2021/01/22 02:25:51;;;;;;;7.60;2.25;;;;;;;7.66;74.24;98444.09;5095006;28;20101;-68
2021/01/22 02:28:21;;;;;;;5.38;1.98;;;;;;;7.72;73.66;98441.53;5096276;28;20052;-69
2021/01/22 02:30:50;;;;;;;7.30;2.25;;;;;;;7.62;74.22;98437.38;5096032;28;20067;-70
2021/01/22 02:33:20;;;;;;;5.60;2.10;;;;;;;7.64;74.58;98431.44;5095609;28;20392;-70
2021/01/22 02:35:53;;;;;;;10.45;2.78;;;;;;;7.65;73.76;98445.81;5095669;28;20048;-69
2021/01/22 02:38:23;;;;;;;5.10;1.83;;;;;;;7.52;74.79;98431.53;5095852;28;20044;-68
2021/01/22 02:40:56;;;;;;;7.30;1.83;;;;;;;7.57;74.20;98431.50;5095579;28;20044;-70
2021/01/22 02:43:27;;;;;;;7.80;1.63;;;;;;;7.60;74.90;98428.94;5095468;28;20051;-69
2021/01/22 02:45:57;;;;;;;5.85;2.10;;;;;;;7.56;74.22;98423.03;5095441;28;20494;-69
2021/01/22 02:48:25;;;;;;;7.03;1.80;;;;;;;7.53;75.24;98435.78;5095492;28;20044;-69
2021/01/22 02:50:53;;;;;;;7.38;2.28;;;;;;;7.58;74.83;98425.56;5095231;28;20153;-68
2021/01/22 02:53:21;;;;;;;5.38;2.55;;;;;;;7.62;75.11;98428.06;5094283;28;20043;-70
2021/01/22 02:55:54;;;;;;;4.63;2.25;;;;;;;7.60;74.38;98429.78;5095148;28;20056;-69
2021/01/22 02:58:33;;;;;;;7.32;2.58;;;;;;;7.46;74.56;98408.78;5094925;28;20044;-69
2021/01/22 03:01:06;;;;;;;4.28;1.98;;;;;;;7.58;74.60;98418.81;5095359;28;20044;-69
2021/01/22 03:03:47;;;;;;;5.68;2.30;;;;;;;7.54;73.98;98414.59;5095094;28;20044;-68
2021/01/22 03:06:22;;;;;;;6.00;2.20;;;;;;;7.57;74.15;98412.03;5095080;28;20555;-69
2021/01/22 03:08:54;;;;;;;4.28;2.25;;;;;;;7.48;75.10;98403.66;5094865;28;20375;-69
2021/01/22 03:11:25;;;;;;;5.45;2.50;;;;;;;7.56;74.40;98402.72;5094951;28;20048;-69
2021/01/22 03:13:58;;;;;;;7.38;2.28;;;;;;;7.53;74.68;98412.94;5094940;28;20048;-67
2021/01/22 03:16:26;;;;;;;5.90;2.42;;;;;;;7.48;74.62;98411.28;5095150;28;20044;-68
2021/01/22 03:18:57;;;;;;;4.57;2.10;;;;;;;7.47;74.89;98395.19;5094803;28;20048;-68
2021/01/22 03:21:26;;;;;;;4.47;2.30;;;;;;;7.54;75.29;98394.28;5094739;28;20071;-68
2021/01/22 03:23:54;;;;;;;4.45;2.28;;;;;;;7.62;75.19;98384.91;5094678;28;20128;-69
2021/01/22 03:26:21;;;;;;;4.60;1.88;;;;;;;7.61;74.25;98380.69;5094612;28;20059;-69
2021/01/22 03:28:49;;;;;;;19.15;1.70;;;;;;;7.74;74.85;98392.41;5094524;28;20040;-67
2021/01/22 03:31:19;;;;;;;5.43;1.90;;;;;;;7.79;74.33;98390.66;5094601;28;20040;-68
2021/01/22 03:33:47;;;;;;;6.80;2.25;;;;;;;7.73;74.54;98387.31;5094561;28;20051;-68
2021/01/22 03:36:15;;;;;;;4.57;1.85;;;;;;;7.73;74.78;98390.72;5094092;28;20036;-68
2021/01/22 03:38:43;;;;;;;5.90;2.03;;;;;;;7.73;74.76;98392.41;5093239;28;20490;-68
2021/01/22 03:41:11;;;;;;;5.72;2.10;;;;;;;7.72;75.09;98389.03;5094346;28;20501;-69
2021/01/22 03:43:39;;;;;;;4.30;1.65;;;;;;;8.07;73.48;98389.50;5094355;28;20063;-69
2021/01/22 03:46:07;;;;;;;4.43;2.13;;;;;;;7.96;73.46;98393.88;5094248;28;20101;-68
2021/01/22 03:48:36;;;;;;;5.18;1.65;;;;;;;8.17;73.75;98376.66;5094208;28;20050;-68
2021/01/22 03:51:05;;;;;;;;;;;;;;;8.13;73.89;98380.13;5094668;28;20052;-69
2021/01/22 03:53:32;;;;;;;5.90;1.92;;;;;;;7.98;73.29;98379.44;5109893;28;20382;-68
2021/01/22 03:56:00;;;;;;;5.32;2.30;;;;;;;7.88;74.32;98385.47;5093256;28;20497;-68
2021/01/22 03:58:28;;;;;;;4.55;1.33;;;;;;;7.74;73.84;98372.09;5093867;28;20070;-67
2021/01/22 04:00:56;;;;;;;6.18;1.48;;;;;;;7.79;75.03;98366.97;5094252;28;20044;-69
2021/01/22 04:03:24;;;;;;;2.67;1.83;;;;;;;7.81;74.95;98376.25;5094018;28;20109;-69
2021/01/22 04:05:53;;;;;;;4.55;2.08;;;;;;;7.81;74.55;98370.31;5094263;28;20379;-68
2021/01/22 04:08:20;;;;;;;4.10;2.00;;;;;;;7.79;75.08;98365.28;5094101;28;20070;-69
2021/01/22 04:10:48;;;;;;;6.10;2.17;;;;;;;7.72;74.73;98361.13;5093960;28;20047;-68
2021/01/22 04:13:16;;;;;;;7.43;1.95;;;;;;;7.70;74.94;98370.41;5093853;28;20044;-69
2021/01/22 04:15:44;;;;;;;5.57;2.13;;;;;;;7.82;75.28;98360.13;5093870;28;20386;-68
2021/01/22 04:18:11;;;;;;;3.72;1.60;;;;;;;7.78;74.89;98378.81;5093788;28;20051;-68
2021/01/22 04:20:40;;;;;;;5.43;2.25;;;;;;;7.77;75.75;98367.00;5093770;28;20054;-69
2021/01/22 04:23:08;;;;;;;5.00;1.85;;;;;;;7.77;75.82;98367.00;5093737;28;20054;-69
2021/01/22 04:25:36;;;;;;;5.70;1.85;;;;;;;7.89;75.09;98354.13;5093763;28;20048;-69
2021/01/22 04:28:04;;;;;;;7.85;2.10;;;;;;;7.97;75.28;98359.13;5093646;28;20123;-68
2021/01/22 04:30:34;;;;;;;3.42;1.83;;;;;;;7.66;75.01;98338.31;5093590;28;20506;-69
2021/01/22 04:33:02;;;;;;;3.55;1.55;;;;;;;7.68;74.96;98321.34;5093612;28;20406;-68
2021/01/22 04:35:30;;;;;;;6.13;2.45;;;;;;;7.76;75.49;98339.91;5093458;28;20097;-68
2021/01/22 04:37:58;;;;;;;5.15;2.03;;;;;;;7.56;75.45;98306.25;5093587;28;20044;-68
2021/01/22 04:40:27;;;;;;;5.78;1.90;;;;;;;7.62;75.20;98344.28;5093923;28;20040;-69
2021/01/22 04:42:54;;;;;;;3.83;1.90;;;;;;;7.61;76.12;98329.91;5093534;28;20059;-70
2021/01/22 04:45:24;;;;;;;4.45;1.95;;;;;;;7.77;75.87;98341.59;5093559;28;20505;-70
2021/01/22 04:47:52;;;;;;;3.20;1.73;;;;;;;7.89;76.15;98338.88;5094732;28;20379;-68
2021/01/22 04:50:20;;;;;;;6.23;1.90;;;;;;;7.85;75.59;98349.94;5097624;28;20044;-69
2021/01/22 04:52:52;;;;;;;5.35;1.77;;;;;;;7.77;75.96;98335.66;5097515;28;20127;-68
2021/01/22 04:55:22;;;;;;;6.53;1.73;;;;;;;8.08;75.77;98348.00;5097575;28;20052;-69
2021/01/22 04:57:52;;;;;;;5.47;1.88;;;;;;;8.18;74.46;98346.19;5097496;28;20036;-67
2021/01/22 05:00:22;;;;;;;2.88;1.65;;;;;;;8.43;74.76;98334.00;5096389;28;20048;-69
2021/01/22 05:02:53;;;;;;;2.95;1.55;;;;;;;8.17;73.78;98302.97;5097437;28;20516;-68
2021/01/22 05:05:22;;;;;;;4.03;1.60;;;;;;;8.27;74.11;98340.16;5097428;28;20052;-69
2021/01/22 05:07:49;;;;;;;5.72;2.17;;;;;;;8.14;73.99;98336.91;5097526;28;20122;-68
2021/01/22 05:10:17;;;;;;;3.22;1.83;;;;;;;8.01;74.01;98331.13;5097668;28;20048;-67
2021/01/22 05:12:45;;;;;;;5.00;1.60;;;;;;;7.92;73.98;98341.41;5097178;28;20494;-68
2021/01/22 05:15:19;;;;;;;3.72;1.70;;;;;;;7.87;74.60;98317.75;5097154;28;20070;-69
2021/01/22 05:17:54;;;;;;;3.88;1.52;;;;;;;7.98;74.31;98341.34;5097517;28;20044;-69
2021/01/22 05:20:31;;;;;;;4.32;2.13;;;;;;;7.62;74.26;98275.75;5097419;28;20056;-68
2021/01/22 05:23:06;;;;;;;4.15;2.20;;;;;;;8.04;74.16;98326.00;5097084;28;20048;-67
2021/01/22 05:25:54;;;;;;;3.15;1.67;;;;;;;8.07;74.04;98331.06;5096971;28;20058;-69
2021/01/22 05:28:30;;;;;;;9.27;2.20;;;;;;;8.09;73.43;98333.56;5096809;28;20097;-68
2021/01/22 05:30:59;;;;;;;5.03;2.55;;;;;;;7.90;74.20;98325.34;5096881;28;20044;-68
2021/01/22 05:33:27;;;;;;;8.63;3.53;;;;;;;7.89;73.68;98335.53;5096879;28;20056;-68
2021/01/22 05:35:55;;;;;;;9.95;3.60;;;;;;;7.89;74.42;98325.38;5097055;28;20048;-68
2021/01/22 05:38:38;;;;;;;5.35;2.22;;;;;;;8.02;74.31;98324.34;5096768;28;20048;-67
2021/01/22 05:41:07;;;;;;;3.30;1.67;;;;;;;8.16;74.37;98314.03;5097028;28;20044;-70
2021/01/22 05:43:37;;;;;;;3.45;1.65;;;;;;;8.12;73.83;98313.22;5096614;28;20494;-69
2021/01/22 05:46:13;;;;;;;4.53;1.98;;;;;;;8.09;74.00;98293.75;5096780;28;20051;-68
2021/01/22 05:48:41;;;;;;;4.65;1.70;;;;;;;8.10;73.76;98299.69;5096783;28;20397;-69
2021/01/22 05:51:10;;;;;;;4.78;1.88;;;;;;;7.93;73.61;98305.00;5096724;28;20056;-69
2021/01/22 05:53:45;;;;;;;4.18;1.80;;;;;;;8.21;73.79;98312.22;5096427;28;20109;-69
2021/01/22 05:56:14;;;;;;;5.50;2.40;;;;;;;8.19;74.00;98317.34;5096180;28;20121;-67
2021/01/22 05:58:44;;;;;;;4.05;1.83;;;;;;;8.23;74.30;98321.53;5095877;28;20098;-69
2021/01/22 06:01:14;;;;;;;4.53;2.10;;;;;;;8.04;74.06;98300.59;5096611;28;20060;-68
2021/01/22 06:03:45;;;;;;;4.75;1.90;;;;;;;8.24;73.86;98332.53;5096301;28;20494;-68
2021/01/22 06:06:14;;;;;;;;;;;;;;;8.22;73.68;98324.09;5096592;28;20402;-67
2021/01/22 06:08:51;;;;;;;5.20;1.90;;;;;;;8.25;73.79;98330.00;5096071;28;19927;-67
2021/01/22 06:11:21;;;;;;;6.38;2.10;;;;;;;8.24;73.19;98342.69;5096037;28;20077;-68
2021/01/22 06:13:52;;;;;;;5.28;2.38;;;;;;;8.25;73.41;98332.53;5096024;28;20097;-68
2021/01/22 06:16:22;;;;;;;2.53;1.52;;;;;;;8.23;73.61;98330.88;5096066;28;20056;-68
2021/01/22 06:18:57;;;;;;;4.30;1.75;;;;;;;8.16;73.50;98329.28;5096262;28;20064;-68
2021/01/22 06:21:28;;;;;;;5.20;2.42;;;;;;;8.06;74.21;98324.28;5095908;28;20040;-67
2021/01/22 06:24:03;;;;;;;4.00;1.77;;;;;;;8.11;74.59;98322.53;5095811;28;20044;-68
2021/01/22 06:26:35;;;;;;;4.10;1.98;;;;;;;8.30;74.18;98332.50;5095783;28;20052;-68
2021/01/22 06:29:04;;;;;;;3.83;1.70;;;;;;;8.36;74.16;98333.25;5095653;28;20036;-68
2021/01/22 06:31:33;;;;;;;4.45;1.60;;;;;;;8.41;73.26;98326.41;5095701;28;20131;-67
2021/01/22 06:34:02;;;;;;;;;;;;;;;8.50;73.63;98326.25;5096027;28;20048;-68
2021/01/22 06:36:29;;;;;;;4.78;1.52;;;;;;;8.51;73.32;98337.28;5095913;28;19924;-68
2021/01/22 06:38:57;;;;;;;5.13;1.77;;;;;;;8.51;73.10;98329.66;5095483;28;20058;-67
2021/01/22 06:41:27;;;;;;;3.78;1.65;;;;;;;8.41;73.31;98330.63;5095519;28;20078;-66
2021/01/22 06:43:58;;;;;;;6.05;1.83;;;;;;;8.39;73.67;98340.00;5095401;28;20490;-68
2021/01/22 06:46:28;;;;;;;4.95;2.00;;;;;;;8.40;73.44;98342.50;5095313;28;20040;-67
2021/01/22 06:49:00;;;;;;;4.05;1.83;;;;;;;8.36;73.70;98333.25;5095217;28;20098;-68
2021/01/22 06:51:30;;;;;;;4.70;2.00;;;;;;;8.20;73.81;98341.91;5095280;28;20449;-66
2021/01/22 06:54:05;;;;;;;5.13;1.88;;;;;;;8.11;74.48;98340.31;5095243;28;20101;-67
2021/01/22 06:56:35;;;;;;;9.38;2.50;;;;;;;8.11;73.95;98337.78;5095235;28;20044;-69
2021/01/22 06:59:30;;;;;;;5.60;1.83;;;;;;;8.20;74.33;98330.91;5095014;28;20044;-68
2021/01/22 07:01:58;;;;;;;4.43;1.95;;;;;;;8.32;74.34;98344.31;5095117;28;20485;-68
2021/01/22 07:04:40;;;;;;;6.45;1.90;;;;;;;8.35;74.33;98330.75;5094763;28;20134;-67
2021/01/22 07:07:09;;;;;;;8.85;2.08;;;;;;;8.42;74.33;98337.41;5094896;28;20094;-67
2021/01/22 07:09:52;;;;;;;11.60;3.03;;;;;;;8.45;73.88;98329.72;5094749;28;20072;-68
2021/01/22 07:12:41;;;;;;;4.63;2.03;;;;;;;8.51;73.91;98342.38;5093382;28;20429;-67
2021/01/22 07:15:28;;;;;;;3.30;1.45;;;;;;;8.51;73.54;98347.44;5094757;28;20051;-68
2021/01/22 07:17:58;;;;;;;2.75;1.58;;;;;;;8.45;73.73;98347.50;5094790;28;20059;-69
2021/01/22 07:20:29;;;;;;;4.32;1.60;;;;;;;8.51;73.69;98342.38;5094761;28;20443;-67
2021/01/22 07:22:59;;;;;;;4.25;1.60;;;;;;;8.56;73.24;98340.59;5094765;28;20394;-67
2021/01/22 07:25:34;;;;;;;4.22;1.60;;;;;;;8.43;73.77;98349.25;5094712;28;20410;-68
2021/01/22 07:28:07;;;;;;;6.18;2.17;;;;;;;8.44;74.25;98351.78;5094558;28;20568;-68
2021/01/22 07:30:40;;;;;;;5.32;1.98;;;;;;;8.43;73.29;98324.69;5094564;28;20051;-68
2021/01/22 07:33:28;;;;;;;6.90;2.65;;;;;;;8.40;74.16;98339.09;5094529;28;20039;-67
2021/01/22 07:36:08;;;;;;;6.40;2.78;;;;;;;8.52;73.45;98341.47;5094734;28;20040;-68
2021/01/22 07:38:38;;;;;;;3.92;1.73;;;;;;;8.56;73.87;98346.53;5094359;28;20410;-67
2021/01/22 07:41:06;;;;;;;5.68;2.13;;;;;;;8.47;73.23;98320.41;5094372;28;20085;-68
2021/01/22 07:43:34;;;;;;;5.05;2.60;;;;;;;8.44;73.48;98325.53;5094658;28;20501;-67
2021/01/22 07:46:07;;;;;;;7.38;2.60;;;;;;;8.53;73.60;98353.34;5094247;28;20052;-67
2021/01/22 07:48:36;;;;;;;8.27;1.95;;;;;;;8.51;73.50;98352.53;5094143;28;20045;-68
2021/01/22 07:51:26;;;;;;;3.25;1.48;;;;;;;8.44;73.93;98335.69;5094241;28;20086;-67
2021/01/22 07:53:57;;;;;;;6.38;2.70;;;;;;;8.41;73.89;98351.81;5094069;28;20052;-68
2021/01/22 07:56:33;;;;;;;4.68;1.92;;;;;;;8.39;73.35;98352.69;5094045;28;20048;-67
2021/01/22 07:59:01;;;;;;;5.75;2.53;;;;;;;8.39;74.49;98332.38;5093925;28;20075;-68
2021/01/22 08:01:30;;;;;;;6.28;2.65;;;;;;;8.50;74.06;98325.41;5094026;28;20105;-67
2021/01/22 08:03:57;;;;;;;6.13;2.00;;;;;;;8.65;73.97;98340.47;5094262;28;20113;-68
2021/01/22 08:06:25;;;;;;;4.10;1.50;;;;;;;8.84;72.94;98352.03;5093793;28;20063;-67
2021/01/22 08:09:06;;;;;;;2.72;1.08;;;;;;;8.89;72.79;98345.19;5093976;28;20036;-67
2021/01/22 08:11:34;;;;;;;4.78;1.77;;;;;;;8.66;73.39;98321.81;5094154;28;20558;-67
2021/01/22 08:14:02;;;;;;;5.40;2.13;;;;;;;8.56;72.68;98310.09;5093781;28;20056;-69
2021/01/22 08:16:30;;;;;;;5.10;2.30;;;;;;;8.77;73.81;98345.38;5093719;28;20048;-68
2021/01/22 08:18:59;;;;;;;3.92;1.92;;;;;;;8.26;73.82;98285.94;5094077;28;20056;-68
2021/01/22 08:21:29;;;;;;;4.32;2.15;;;;;;;8.65;73.71;98340.47;5092738;28;20072;-67
2021/01/22 08:23:58;;;;;;;;;;;;;;;8.70;73.34;98339.53;5094103;28;20055;-68
2021/01/22 08:26:28;;;;;;;3.20;1.38;;;;;;;8.66;73.78;98316.72;5093279;28;19965;-69
2021/01/22 08:28:56;;;;;;;4.90;2.22;;;;;;;8.77;73.47;98340.28;5093532;28;20059;-68
2021/01/22 08:31:24;;;;;;;3.17;1.50;;;;;;;8.70;73.50;98318.34;5093565;28;20059;-68
2021/01/22 08:33:52;;;;;;;4.63;2.03;;;;;;;8.60;73.82;98317.66;5093709;28;20077;-68
2021/01/22 08:36:21;;;;;;;3.55;1.80;;;;;;;8.72;74.12;98342.91;5093477;28;20044;-68
2021/01/22 08:38:55;;;;;;;4.35;2.00;;;;;;;8.59;75.05;98328.66;5092507;28;20044;-67
2021/01/22 08:41:24;;;;;;;4.78;2.00;;;;;;;8.43;75.14;98303.50;5093557;28;20058;-68
2021/01/22 08:43:55;;;;;;;3.60;1.90;;;;;;;8.39;75.35;98306.94;5093317;28;20098;-67
2021/01/22 08:46:24;;;;;;;6.93;2.50;;;;;;;8.41;76.04;98328.09;5093412;28;20048;-69
2021/01/22 08:48:52;;;;;;;7.05;2.60;;;;;;;7.88;76.80;98238.16;5093345;28;20058;-69
2021/01/22 08:51:27;;;;;;;5.28;1.95;;;;;;;8.40;77.07;98293.34;5093326;28;20494;-67
2021/01/22 08:53:56;;;;;;;6.82;1.85;;;;;;;8.61;76.86;98318.50;5093393;28;20101;-69
2021/01/22 08:56:26;;;;;;;5.03;2.58;;;;;;;8.66;76.08;98319.28;5093338;28;20059;-68
2021/01/22 08:58:59;;;;;;;7.15;2.22;;;;;;;8.63;76.44;98317.59;5093169;28;20383;-69
2021/01/22 09:01:46;;;;;;;4.50;2.20;;;;;;;8.72;77.25;98317.47;5093362;28;20040;-69
2021/01/22 09:04:28;;;;;;;4.35;1.88;;;;;;;8.78;75.71;98309.72;5093296;28;20078;-69
2021/01/22 09:06:57;;;;;;;3.50;1.75;;;;;;;8.80;75.93;98294.44;5092421;28;20048;-68
2021/01/22 09:09:40;;;;;;;3.25;1.40;;;;;;;8.74;76.23;98294.53;5093077;28;20448;-69
2021/01/22 09:12:19;;;;;;;5.18;1.70;;;;;;;8.72;76.47;98312.38;5093329;28;20056;-69
2021/01/22 09:14:57;;;;;;;6.07;2.22;;;;;;;8.77;77.16;98304.66;5093155;28;20052;-67
2021/01/22 09:17:33;;;;;;;6.70;2.03;;;;;;;8.71;77.36;98312.38;5093253;28;20055;-69
2021/01/22 09:20:07;;;;;;;4.85;1.90;;;;;;;8.56;77.80;98315.19;5093189;28;20060;-68
2021/01/22 09:22:35;;;;;;;9.50;2.92;;;;;;;8.52;78.64;98314.38;5093551;28;20044;-70
2021/01/22 09:25:06;;;;;;;6.40;2.30;;;;;;;8.60;78.46;98306.63;5093130;28;20052;-70
2021/01/22 09:27:35;;;;;;;8.07;2.55;;;;;;;8.36;78.55;98273.94;5091998;28;20048;-70
2021/01/22 09:30:06;;;;;;;6.03;2.08;;;;;;;8.55;78.62;98303.31;5092117;28;20123;-67
2021/01/22 09:32:34;;;;;;;6.38;2.33;;;;;;;8.65;78.19;98294.69;5093153;28;20105;-70
2021/01/22 09:35:03;;;;;;;4.70;1.77;;;;;;;8.61;79.03;98296.41;5096147;28;20052;-68
2021/01/22 09:37:31;;;;;;;5.07;2.22;;;;;;;8.69;78.35;98301.41;5097007;28;20044;-70
2021/01/22 09:39:59;;;;;;;5.65;2.22;;;;;;;8.59;79.18;98300.69;5096758;28;20051;-69
2021/01/22 09:42:28;;;;;;;;;;;;;;;8.58;79.32;98308.34;5097073;28;20063;-71
2021/01/22 09:44:56;;;;;;;3.58;1.70;;;;;;;8.65;78.90;98292.16;5096937;28;19920;-69
2021/01/22 09:47:25;;;;;;;8.13;2.60;;;;;;;8.75;78.77;98278.44;5097102;28;20082;-70
2021/01/22 09:49:53;;;;;;;6.50;2.33;;;;;;;8.80;79.13;98275.81;5095583;28;20383;-69
2021/01/22 09:52:22;;;;;;;4.20;2.47;;;;;;;8.92;77.71;98271.38;5096429;28;20285;-71
2021/01/22 09:54:50;;;;;;;3.65;1.60;;;;;;;9.06;77.51;98287.22;5096397;28;20062;-69
2021/01/22 09:57:18;;;;;;;5.30;2.22;;;;;;;8.97;77.55;98274.66;5096287;28;20387;-69
2021/01/22 09:59:46;;;;;;;4.93;1.90;;;;;;;8.88;78.54;98272.25;5096406;28;20071;-71
2021/01/22 10:02:14;;;;;;;4.30;1.58;;;;;;;8.83;78.11;98294.38;5096218;28;20569;-72
2021/01/22 10:04:44;;;;;;;3.95;1.65;;;;;;;8.55;79.12;98243.13;5096251;28;20052;-71
2021/01/22 10:07:11;;;;;;;4.70;2.00;;;;;;;8.68;79.03;98279.38;5096271;28;20043;-70
2021/01/22 10:09:39;;;;;;;6.18;2.42;;;;;;;8.52;79.43;98270.28;5096070;28;20159;-70
2021/01/22 10:12:08;;;;;;;7.30;2.47;;;;;;;8.57;79.16;98279.53;5096105;28;20492;-71
2021/01/22 10:14:36;;;;;;;3.63;1.80;;;;;;;8.65;80.20;98259.09;5095958;28;20048;-70
2021/01/22 10:17:04;;;;;;;4.93;1.52;;;;;;;8.69;79.30;98260.72;5096042;28;20059;-70
2021/01/22 10:19:35;;;;;;;4.95;2.22;;;;;;;8.62;79.84;98269.28;5095931;28;20556;-69
2021/01/22 10:22:04;;;;;;;4.97;2.25;;;;;;;8.41;79.52;98279.81;5095810;28;20040;-71
2021/01/22 10:24:32;;;;;;;3.87;1.67;;;;;;;8.59;79.46;98266.81;5096049;28;20044;-69
2021/01/22 10:27:00;;;;;;;7.15;2.63;;;;;;;8.43;80.14;98272.97;5095826;28;20283;-70
2021/01/22 10:29:27;;;;;;;5.05;2.70;;;;;;;8.25;79.89;98273.22;5095597;28;20056;-70
2021/01/22 10:31:56;;;;;;;7.95;2.85;;;;;;;8.15;81.74;98267.44;5095568;28;20051;-70
2021/01/22 10:34:24;;;;;;;6.57;3.08;;;;;;;8.15;81.52;98271.69;5095472;28;20047;-69
2021/01/22 10:36:52;;;;;;;5.82;2.40;;;;;;;8.44;80.25;98267.06;5095746;28;20063;-71
2021/01/22 10:39:20;;;;;;;4.25;2.20;;;;;;;8.45;79.26;98264.47;5095840;28;20151;-70
2021/01/22 10:41:49;;;;;;;;;;;;;;;8.34;79.79;98268.03;5095994;28;20059;-70
2021/01/22 10:44:17;;;;;;;3.95;1.63;;;;;;;8.34;79.62;98273.97;5095435;28;19927;-70
2021/01/22 10:46:44;;;;;;;5.53;2.97;;;;;;;8.20;80.15;98272.44;5094533;28;20056;-70
2021/01/22 10:49:12;;;;;;;6.68;2.50;;;;;;;8.11;80.75;98286.09;5095332;28;20048;-71
2021/01/22 10:51:40;;;;;;;5.38;2.17;;;;;;;8.41;78.96;98269.63;5095288;28;20047;-69
2021/01/22 10:54:08;;;;;;;6.55;2.63;;;;;;;8.33;79.23;98266.34;5095271;28;20082;-69
2021/01/22 10:56:37;;;;;;;4.82;2.28;;;;;;;8.16;79.41;98273.38;5095453;28;20079;-69
2021/01/22 10:59:05;;;;;;;5.75;2.35;;;;;;;8.31;79.41;98260.47;5095095;28;20509;-70
2021/01/22 11:01:32;;;;;;;5.05;2.47;;;;;;;8.36;79.82;98261.22;5095052;28;20498;-70
2021/01/22 11:04:00;;;;;;;4.00;2.00;;;;;;;8.45;79.03;98266.16;5095271;28;20095;-70
2021/01/22 11:06:30;;;;;;;2.55;1.77;;;;;;;8.30;79.54;98253.72;5094778;28;20050;-69
2021/01/22 11:08:58;;;;;;;4.20;2.17;;;;;;;8.37;79.42;98252.75;5094851;28;20048;-70
2021/01/22 11:11:25;;;;;;;4.10;2.72;;;;;;;8.34;79.29;98242.63;5094834;28;20066;-69
2021/01/22 11:13:54;;;;;;;4.28;2.13;;;;;;;8.57;78.29;98235.47;5095259;28;20072;-69
2021/01/22 11:16:22;;;;;;;5.07;2.17;;;;;;;8.60;78.46;98243.06;5095137;28;20123;-70
2021/01/22 11:18:50;;;;;;;6.05;2.60;;;;;;;8.44;77.49;98234.00;5093567;28;20052;-69
2021/01/22 11:21:17;;;;;;;4.68;2.33;;;;;;;7.41;78.00;98053.47;5095334;28;20058;-69
2021/01/22 11:23:45;;;;;;;6.60;2.47;;;;;;;8.62;77.66;98218.44;5094647;28;20432;-70
2021/01/22 11:26:13;;;;;;;5.43;1.90;;;;;;;8.77;77.26;98198.69;5094679;28;20543;-69
2021/01/22 11:28:41;;;;;;;7.30;2.08;;;;;;;8.88;75.61;98230.75;5094834;28;20076;-69
2021/01/22 11:31:09;;;;;;;4.07;2.17;;;;;;;6.13;75.25;97753.72;5094612;28;20068;-69
2021/01/22 11:33:37;;;;;;;4.35;1.75;;;;;;;8.85;75.98;98193.47;5094573;28;20127;-68
2021/01/22 11:36:05;;;;;;;5.90;2.30;;;;;;;8.94;76.66;98206.03;5094677;28;20064;-68
2021/01/22 11:38:33;;;;;;;5.93;2.75;;;;;;;9.05;75.38;98185.44;5094443;28;20134;-68
2021/01/22 11:41:01;;;;;;;6.03;2.50;;;;;;;9.21;74.88;98187.66;5094367;28;20060;-69
2021/01/22 11:43:29;;;;;;;4.95;2.00;;;;;;;9.12;74.64;98164.94;5094399;28;20525;-68
2021/01/22 11:45:56;;;;;;;6.90;2.47;;;;;;;9.42;74.42;98179.63;5094327;28;20126;-68
2021/01/22 11:48:25;;;;;;;6.15;2.10;;;;;;;9.31;73.75;98145.91;5093964;28;20060;-69
2021/01/22 11:50:53;;;;;;;5.25;1.60;;;;;;;9.36;74.06;98169.56;5094121;28;20062;-68
2021/01/22 11:53:20;;;;;;;5.55;2.28;;;;;;;9.42;74.25;98194.91;5093892;28;20056;-68
2021/01/22 11:55:48;;;;;;;6.20;2.70;;;;;;;9.27;74.34;98169.75;5093991;28;20052;-69
2021/01/22 11:58:16;;;;;;;5.55;2.00;;;;;;;9.08;75.03;98183.69;5094024;28;20056;-69